KEYO2: Keystone Lake

Data processed at Sat Dec 09 2017 23:03


All information presented herein is the property of the government of the United States of America and may be revised or deleted at any time without prior notice.
Dissemination of this information without the expressed written consent of the Public Affairs Office, Tulsa District U.S. Army Corps of Engineers is strictly prohibited.
These data are gathered electronically and, as presented, have not undergone any form of quality control. These data are not guaranteed to be valid or correct.
Go to home page.
Go to station list.

Upstream stations:

Downstream station:
Previous Day
Next Day
Current Day
    
SHEF ID:       KEYO2     Keystone Lake
STATION TYPE:  Reservoir
Normal Pool:  Bottom =   706.00, Top =   723.00

               PRECIP ELEVATION   STORAGE   TW-ELEV    INFLOW   RELEASE  AIR-TEMP  WIND-DIRWIND-SPEED REL-HUMID SOLAR-RAD   VOLTAGE  BAT-LOAD
                   in        ft     ac-ft        ft       cfs       cfs         F       deg       mph         %      W/m2      volt      volt
              Ccp-Rev   Ccp-Rev   Ccp-Rev   Ccp-Rev  Regi-Rev  Regi-Rev   Ccp-Rev   Ccp-Rev   Ccp-Rev   Ccp-Rev   Ccp-Rev   Ccp-Rev   Ccp-Rev
(US/Central)
12/07 00:00      0.00    722.28    419982    637.82        18         0     39.25    312.90     11.09     50.62      0.00     13.69     13.30
12/07 01:00      0.00    722.28    419982    637.74        18         0     38.16    332.20     12.51     55.14      0.00     13.69     13.30
12/07 02:00      0.00    722.30    420314    637.68        18         0     35.51    321.00     15.33     62.47      0.00     13.70     13.30
12/07 03:00      0.00    722.28    419982    637.65         0         0     33.53    329.60     14.43     58.74      0.00     13.69     13.30
12/07 04:00      0.00    722.31    420480    637.62         1         0     32.11    323.80     15.59     52.94      0.00     13.69     12.48
12/07 05:00      0.00    722.31    420480    637.61         3         0     28.81    319.00     17.85     56.43      0.00     13.68     13.30
12/07 06:00      0.00    722.25    419485    639.09        15       400     27.05    320.20     16.74     60.22      0.00     13.69     13.30
12/07 07:00      0.00    722.25    419485    642.56        20     11800     25.95    321.90     15.36     64.48      0.00     13.69     13.30
12/07 08:00      0.00    722.16    417993    642.72        24     11800     25.07    314.50     15.02     66.20     29.00     13.69     13.30
12/07 09:00      0.00    722.13    417495    642.80        28     11800     25.63    310.90     14.18     64.49    219.00     13.69     13.30
12/07 10:00      0.00    722.06    416335    642.83        35     11800     27.39    316.70     14.40     58.32    407.00     13.69     13.30
12/07 11:00      0.00    722.00    415340    642.76        28     11900     28.71    319.50     12.88     59.97    542.00     13.68     13.30
12/07 12:00      0.00    721.95    414527    642.78        25     11800     30.36    319.40      9.35     45.87    620.00     13.69     13.30
12/07 13:00      0.00    721.92    414040    642.02        21     11600     32.22    322.00     11.71     38.29    514.00     13.69     13.30
12/07 14:00      0.00    721.90    413715    639.39        18       400     33.87    321.90     10.77     38.17     41.00     13.69     13.30
12/07 15:00      0.00    721.89    413552    638.40        14         0     35.08    326.30     10.93     34.99    130.00     13.69     13.30
12/07 16:00      0.00    721.90    413715    637.98        10         0     35.29    317.00     10.48     33.47    208.00     13.69     13.30
12/07 17:00      0.00    721.87    413227    639.25        10       400     35.08    321.50     10.27     34.20     83.00     13.69     13.30
12/07 18:00      0.00    721.85    412902    642.57        12     11800     34.30    318.90     11.77     36.83      3.00     13.69     13.30
12/07 19:00      0.00    721.81    412252    641.92        15     11600     33.33    315.30     11.12     39.57      1.00     13.69     13.30
12/07 20:00      0.00    721.78    411765    639.26        10       400     32.65    322.70     10.01     38.96      0.00     13.69     13.30
12/07 21:00      0.00    721.77    411602    638.34         9         0     32.65    312.00      9.26     45.55      0.00     13.68     13.30
12/07 22:00      0.00    721.80    412090    637.97         9         0     30.79    337.90      7.16     45.19      0.00     13.69     13.30
12/07 23:00      0.00    721.80    412090    637.82         5         0     26.62    182.10      0.68     60.71      0.00     13.69     13.30